Archival Weather

South Haven Area Rgnl

South Haven, Michigan (KLWA)

Report from: Tuesday, September 19, 2023 11:15 AM EDT
Current time: Tuesday, July 16, 2024 4:40 AM EDT

Current weather – Weather history – Daily summaries
Weather forecast

Temperature17.5°C (63.5°F)
Dew point12.9°C (55.2°F)
Winds 4 kts (2.1 m/s, 4.6 mph) South (170°)
Visibility10 mi. (16.1 km)
Clouds Ceiling: Broken clouds 8,500 ft. (2,591 m)
Overcast 11,000 ft. (3,353 m)
Altimeter30.09 in.Hg (1019 mB)
Relative humidity74 %
Density altitude309 ft. (94 m)
Remarks Fully automated report
Automated weather observing station with precipitation discriminator
Flight conditions Visual Meteorological Conditions
Raw dataKLWA 191515Z AUTO 17004KT 10SM BKN085 OVC110 18/13 A3009 RMK AO2 T01750129
An error has occurred. This application may no longer respond until reloaded. Reload 🗙